Tiempo atmosférico en la estación meteorológica de Les Planes d?Hostoles, Girona (337 m.)



Fecha
DESCASC
Temp. máxima en grados centígrados (hora)
DESCASC
Temp. mínima en grados centígrados (hora)
DESCASC
Temp. media en grados centígrados
DESCASC
Racha de viento máxima en m/sg (hora)
DESCASC
Velocidad máxima media en intervalos de 10 minutos(hora)
DESCASC
Precipitaciones diarias en mm
DESCASC
Precipitaciones de 00:00 a 06:00 en mm
DESCASC
Precipitaciones de 06:00 a 12:00 en mm
DESCASC
Precipitaciones de 12:00 a 18:00 en mm
DESCASC
Precipitaciones de 18:00 a 24:00 en mm
DESCASC

Gráficas

Temp. máximas Temp. mínimas Temp. medias Precipitaciones Rachas de viento máximas Velocidades máximas media en intervalos de 10 minutos

Datos horarios

Fecha y hora oficial Temperatura (ºC) Velocidad del viento (km/h) Dirección del viento Racha (km/h) Dirección de racha Precipitación (mm) Presión (hPa) Tendencia (hPa) Humedad (%)
2020-01-22 23:00:00 11.4 0 Calma -- -- 0 -- -- 98
2020-01-22 22:00:00 11.5 0 Calma -- -- 0 -- -- 98
2020-01-22 21:00:00 11.4 0 Calma -- -- 0 -- -- 97
2020-01-22 20:00:00 11.4 0 Calma -- -- 0 -- -- 98
2020-01-22 19:00:00 11.3 0 Calma -- -- 0 -- -- 98
2020-01-22 18:00:00 11.3 0 Calma -- -- 0 -- -- 98
2020-01-22 17:00:00 11.4 0 Calma -- -- 0 -- -- 98
2020-01-22 16:00:00 11.5 0 Calma -- -- 0 -- -- 98
2020-01-22 15:00:00 11.5 0 Calma -- -- 0 -- -- 98
2020-01-22 14:00:00 11.4 0 Calma -- -- 0 -- -- 98
2020-01-22 13:00:00 11.8 0 Calma -- -- 0 -- -- 100
2020-01-22 12:00:00 10.9 0 Calma -- -- 0 -- -- 100
2020-01-22 11:00:00 7.4 0 Calma -- -- 0 -- -- 100
2020-01-22 10:00:00 7 0 Calma -- -- 0 -- -- 99
2020-01-22 09:00:00 7 0 Calma -- -- 0 -- -- 99
2020-01-22 08:00:00 6.9 0 Calma -- -- 0 -- -- 98
2020-01-22 07:00:00 7.1 0 Calma -- -- 0 -- -- 97
2020-01-22 06:00:00 7.7 0 Calma -- -- 0 -- -- 95
2020-01-22 05:00:00 9.7 0 Calma 9 Norte 2 -- -- 97
2020-01-22 04:00:00 10.3 6 Sudeste 34 Sudeste 4.2 -- -- 95
2020-01-22 03:00:00 10.1 6 Sudeste 30 Sudeste 4.4 -- -- 95
2020-01-22 02:00:00 9.6 5 Sudeste 29 Sur 9.8 -- -- 95
2020-01-22 01:00:00 9.6 9 Sudeste 44 Nordeste 8.2 -- -- 94
2020-01-22 00:00:00 9.4 7 Sudeste 30 Sudeste 7.6 -- -- 95
2020-01-21 23:00:00 9.2 6 Sudeste 26 Este 7.4 -- -- 94
2020-01-21 22:00:00 9.3 8 Sudeste 35 Este 3.2 -- -- 91
2020-01-21 21:00:00 9.2 8 Sudeste 29 Sudeste 0 -- -- 90
2020-01-21 20:00:00 9 11 Este 36 Sudeste 0 -- -- 91
2020-01-21 19:00:00 8.6 9 Sudeste 30 Este 0 -- -- 93
2020-01-21 18:00:00 8.5 9 Sudeste 32 Sudeste 0.4 -- -- 94
2020-01-21 17:00:00 8.3 7 Sudeste 27 Este 1 -- -- 96
2020-01-21 16:00:00 8 5 Sudeste 22 Este 2.2 -- -- 95
2020-01-21 15:00:00 8.1 5 Sudeste 28 Este 3.6 -- -- 94
2020-01-21 14:00:00 8.1 6 Sudeste 30 Sudeste 3.4 -- -- 94
2020-01-21 13:00:00 8.1 8 Sudeste 24 Este 4.6 -- -- 95
2020-01-21 12:00:00 7.9 6 Sudeste 22 Nordeste 6 -- -- 96
2020-01-21 11:00:00 7.5 4 Oeste 22 Sur 1.8 -- -- 96
2020-01-21 10:00:00 6.5 5 Sudoeste 20 Sudeste 3 -- -- 96
2020-01-21 09:00:00 6.1 6 Este 25 Sudeste 3.8 -- -- 97
2020-01-21 08:00:00 4.5 5 Sudoeste 17 Oeste 4 -- -- 96
2020-01-21 07:00:00 4.4 7 Oeste 23 Sur 1.6 -- -- 95
2020-01-21 06:00:00 3.7 7 Oeste 20 Oeste 3.2 -- -- 95
2020-01-21 05:00:00 3.3 5 Noroeste 35 Noroeste 5 -- -- 94
2020-01-21 04:00:00 3.5 8 Noroeste 30 Noroeste 6 -- -- 92
2020-01-21 03:00:00 2.9 7 Noroeste 21 Noroeste 6.8 -- -- 93
2020-01-21 02:00:00 4 9 Nordeste 31 Norte 6.6 -- -- 91
2020-01-21 01:00:00 3.3 5 Noroeste 28 Noroeste 4.8 -- -- 94
2020-01-21 00:00:00 3.1 8 Noroeste 25 Noroeste 4 -- -- 94
2020-01-20 23:00:00 2.7 6 Noroeste 27 Noroeste 4.6 -- -- 94
2020-01-20 22:00:00 2.8 11 Noroeste 28 Noroeste 5 -- -- 93
2020-01-20 21:00:00 3.9 5 Noroeste 24 Norte 4.4 -- -- 92
2020-01-20 20:00:00 3.7 6 Sudoeste 36 Noroeste 4.2 -- -- 92
2020-01-20 19:00:00 3.7 8 Sudeste 26 Sudeste 2.8 -- -- 91
2020-01-20 18:00:00 4 5 Sur 17 Oeste 1.2 -- -- 90
2020-01-20 17:00:00 4.3 5 Sudeste 24 Sudeste 0.8 -- -- 87
2020-01-20 16:00:00 5 5 Sudeste 25 Sudeste 0.4 -- -- 81
2020-01-20 15:00:00 6.6 5 Nordeste 22 Este 0 -- -- 67
2020-01-20 14:00:00 7.3 9 Norte 26 Sudeste 0 -- -- 61
2020-01-20 13:00:00 7.2 9 Nordeste 29 Sudeste 0 -- -- 60
2020-01-20 12:00:00 7.3 7 Norte 23 Sudeste 0 -- -- 57
2020-01-20 11:00:00 6.7 7 Norte 22 Norte 0 -- -- 59
2020-01-20 10:00:00 6 6 Norte 37 Norte 0 -- -- 59
2020-01-20 09:00:00 5.2 8 Norte 27 Noroeste 0 -- -- 58
2020-01-20 08:00:00 5.7 12 Noroeste 28 Noroeste 0 -- -- 54
2020-01-20 07:00:00 6.1 6 Norte 25 Noroeste 0 -- -- 53
2020-01-20 06:00:00 6.5 4 Norte 22 Noroeste 0 -- -- 44
2020-01-20 05:00:00 6.4 8 Norte 23 Noroeste 0 -- -- 41
2020-01-20 04:00:00 6.4 9 Norte 24 Noroeste 0 -- -- 38
2020-01-20 03:00:00 6 4 Nordeste 14 Noroeste 0 -- -- 43
2020-01-20 02:00:00 6 5 Norte 27 Noroeste 0 -- -- 38
2020-01-20 01:00:00 6.3 5 Nordeste 24 Norte 0 -- -- 38
2020-01-20 00:00:00 6.4 5 Nordeste 21 Norte 0 -- -- 37
2020-01-19 23:00:00 6.5 5 Nordeste 17 Sur 0 -- -- 37
2020-01-19 22:00:00 6.5 6 Norte 29 Norte 0 -- -- 35
2020-01-19 21:00:00 6.1 8 Norte 30 Noroeste 0 -- -- 37
2020-01-19 20:00:00 5.9 5 Nordeste 24 Norte 0 -- -- 37
2020-01-19 19:00:00 6.8 5 Nordeste 31 Norte 0 -- -- 33
2020-01-19 18:00:00 7.8 8 Nordeste 21 Norte 0 -- -- 33
2020-01-19 17:00:00 8.6 6 Nordeste 31 Noroeste 0 -- -- 27
2020-01-19 16:00:00 9.7 7 Nordeste 32 Este 0 -- -- 27
2020-01-19 15:00:00 10.3 9 Nordeste 33 Sudeste 0 -- -- 29
2020-01-19 14:00:00 10 6 Sudeste 26 Sudeste 0 -- -- 39
2020-01-19 13:00:00 9.9 6 Este 21 Sudeste 0 -- -- 37
2020-01-19 12:00:00 9.5 6 Este 29 Sudeste 0 -- -- 44
2020-01-19 11:00:00 8.1 4 Este 17 Este 0 -- -- 56
2020-01-19 10:00:00 4.9 2 Oeste 16 Este 0 -- -- 96
2020-01-19 09:00:00 4.2 0 Calma 6 Noroeste 0 -- -- 99
2020-01-19 08:00:00 4.5 0 Calma 4 Este 0 -- -- 99
2020-01-19 07:00:00 4.8 2 Nordeste 5 Este 0 -- -- 98
2020-01-19 06:00:00 5.1 0 Calma 5 Sudoeste 0.2 -- -- 97
2020-01-19 05:00:00 5.5 3 Sudeste 13 Este 0.2 -- -- 96
2020-01-19 04:00:00 5.8 2 Sudoeste 17 Sudoeste 0 -- -- 97
2020-01-19 03:00:00 4.2 0 Calma 6 Noroeste 0 -- -- 98
2020-01-19 02:00:00 3 2 Nordeste 5 Nordeste 0 -- -- 98
2020-01-19 01:00:00 1.4 0 Calma 3 Este 0 -- -- 98
2020-01-19 00:00:00 0.9 2 Nordeste 4 Nordeste 0 -- -- 96
2020-01-18 23:00:00 1.5 0 Calma 3 Este 0 -- -- 95
2020-01-18 22:00:00 2.7 0 Calma 5 Norte 0 -- -- 93
2020-01-18 21:00:00 3.8 0 Calma 4 Nordeste 0 -- -- 93
2020-01-18 20:00:00 3.2 2 Este 4 Norte 0 -- -- 93
2020-01-18 19:00:00 3.5 0 Calma 3 Nordeste 0 -- -- 85
2020-01-18 18:00:00 6.5 0 Calma 10 Sudeste 0 -- -- 81
2020-01-18 17:00:00 8.6 2 Oeste 7 Sudoeste 0 -- -- 73
2020-01-18 16:00:00 13.4 5 Sudoeste 15 Sur 0 -- -- 56
2020-01-18 15:00:00 13.3 4 Sur 20 Sudeste 0 -- -- 48
2020-01-18 14:00:00 12.6 5 Sudeste 12 Sudeste 0 -- -- 58
2020-01-18 13:00:00 11.2 5 Sudoeste 11 Sudoeste 0 -- -- 66
2020-01-18 12:00:00 8.6 2 Sudeste 7 Oeste 0 -- -- 86
2020-01-18 11:00:00 5.4 0 Calma 5 Oeste 0 -- -- 100
2020-01-18 10:00:00 2.4 3 Nordeste 5 Este 0 -- -- 100
2020-01-18 09:00:00 0.6 0 Calma 4 Este 0 -- -- 100
2020-01-18 08:00:00 0.3 2 Nordeste 5 Nordeste 0 -- -- 99
2020-01-18 07:00:00 -0.4 0 Calma 4 Este 0 -- -- 99
2020-01-18 06:00:00 -1.2 0 Calma 5 Nordeste 0 -- -- 99
2020-01-18 05:00:00 -2.2 0 Calma 4 Nordeste 0 -- -- 98
2020-01-18 04:00:00 -2.1 2 Nordeste 6 Este 0 -- -- 98
2020-01-18 03:00:00 -1.8 3 Nordeste 5 Nordeste 0 -- -- 98
2020-01-18 02:00:00 -1.8 2 Nordeste 4 Nordeste 0 -- -- 97
2020-01-18 01:00:00 -1.4 3 Nordeste 4 Este 0 -- -- 97
2020-01-18 00:00:00 -1.1 2 Nordeste 4 Este 0 -- -- 96
2020-01-17 23:00:00 -0.6 2 Nordeste 4 Norte 0 -- -- 95
2020-01-17 22:00:00 0.5 2 Nordeste 5 Nordeste 0 -- -- 95
2020-01-17 21:00:00 1.7 0 Calma 4 Este 0 -- -- 92
2020-01-17 20:00:00 3.6 3 Nordeste 5 Este 0 -- -- 88
2020-01-17 19:00:00 6.9 3 Nordeste 8 Sudeste 0 -- -- 82
2020-01-17 18:00:00 10.2 4 Sudoeste 21 Sur 0 -- -- 72
2020-01-17 17:00:00 12.5 9 Sur 29 Oeste 0 -- -- 62
2020-01-17 16:00:00 15.5 12 Oeste 28 Oeste 0 -- -- 50
2020-01-17 15:00:00 15.9 14 Oeste 40 Oeste 0 -- -- 50
2020-01-17 14:00:00 15.9 13 Oeste 41 Oeste 0 -- -- 50
2020-01-17 13:00:00 14.7 11 Sudoeste 39 Oeste 0 -- -- 55
2020-01-17 12:00:00 13.9 25 Oeste 57 Oeste 0 -- -- 56
2020-01-17 11:00:00 13.4 8 Oeste 28 Noroeste 0 -- -- 57
2020-01-17 10:00:00 7.6 3 Sudeste 10 Nordeste 0 -- -- 88
2020-01-17 09:00:00 7 4 Este 24 Noroeste 0 -- -- 83
2020-01-17 08:00:00 9.3 3 Sur 45 Oeste 0 -- -- 74
2020-01-17 07:00:00 12.1 13 Oeste 32 Sudoeste 0 -- -- 64
2020-01-17 06:00:00 11.6 9 Norte 25 Oeste 0 -- -- 74
2020-01-17 05:00:00 5.3 7 Nordeste 22 Sudeste 0 -- -- 100
2020-01-17 04:00:00 3.8 3 Sudoeste 10 Noroeste 0 -- -- 100
2020-01-17 03:00:00 2.8 3 Este 8 Oeste 0 -- -- 100
2020-01-17 02:00:00 2.1 3 Este 9 Sudeste 0 -- -- 100
2020-01-17 01:00:00 2.1 4 Este 7 Este 0 -- -- 100
2020-01-17 00:00:00 2.4 3 Nordeste 12 Noroeste 0 -- -- 99
2020-01-16 23:00:00 2.1 4 Nordeste 13 Este 0 -- -- 98
2020-01-16 22:00:00 2.2 6 Este 12 Noroeste 0 -- -- 98
2020-01-16 21:00:00 2.9 6 Este 14 Noroeste 0 -- -- 97
2020-01-16 20:00:00 3 4 Nordeste 8 Este 0 -- -- 95
2020-01-16 19:00:00 4 3 Este 6 Este 0 -- -- 93
2020-01-16 18:00:00 6 2 Nordeste 6 Oeste 0 -- -- 87
2020-01-16 17:00:00 9.3 2 Sudoeste 10 Sudoeste 0 -- -- 80
2020-01-16 16:00:00 14 4 Sur 14 Sudoeste 0 -- -- 66
2020-01-16 15:00:00 14 6 Sudoeste 20 Sudeste 0 -- -- 62
2020-01-16 14:00:00 13.5 5 Sudoeste 14 Sur 8.4 -- -- 62
2020-01-16 13:00:00 -- -- -- -- -- -- -- -- --
2020-01-16 12:00:00 -- -- -- -- -- -- -- -- --
2020-01-16 11:00:00 -- -- -- -- -- -- -- -- --
2020-01-16 10:00:00 -- -- -- -- -- -- -- -- --
2020-01-16 09:00:00 -- -- -- -- -- -- -- -- --
2020-01-16 08:00:00 -- -- -- -- -- -- -- -- --
2020-01-16 07:00:00 -- -- -- -- -- -- -- -- --
2020-01-16 06:00:00 -- -- -- -- -- -- -- -- --
2020-01-16 05:00:00 -- -- -- -- -- -- -- -- --
2020-01-16 04:00:00 -- -- -- -- -- -- -- -- --
2020-01-16 03:00:00 -- -- -- -- -- -- -- -- --
2020-01-16 02:00:00 -- -- -- -- -- -- -- -- --
2020-01-16 01:00:00 -- -- -- -- -- -- -- -- --
2020-01-16 00:00:00 -- -- -- -- -- -- -- -- --
2020-01-15 23:00:00 -- -- -- -- -- -- -- -- --
2020-01-15 22:00:00 -- -- -- -- -- -- -- -- --
2020-01-15 21:00:00 -- -- -- -- -- -- -- -- --
2020-01-15 20:00:00 -- -- -- -- -- -- -- -- --
2020-01-15 19:00:00 -- -- -- -- -- -- -- -- --
2020-01-15 18:00:00 -- -- -- -- -- -- -- -- --
2020-01-15 17:00:00 -- -- -- -- -- -- -- -- --
2020-01-15 16:00:00 -- -- -- -- -- -- -- -- --
2020-01-15 15:00:00 -- -- -- -- -- -- -- -- --
2020-01-15 14:00:00 -- -- -- -- -- -- -- -- --
2020-01-15 13:00:00 -- -- -- -- -- -- -- -- --
2020-01-15 12:00:00 -- -- -- -- -- -- -- -- --
2020-01-15 11:00:00 -- -- -- -- -- -- -- -- --
2020-01-15 10:00:00 -- -- -- -- -- -- -- -- --
2020-01-15 09:00:00 -- -- -- -- -- -- -- -- --
2020-01-15 08:00:00 -- -- -- -- -- -- -- -- --
2020-01-15 07:00:00 -- -- -- -- -- -- -- -- --
2020-01-15 06:00:00 -- -- -- -- -- -- -- -- --
2020-01-15 05:00:00 -- -- -- -- -- -- -- -- --
2020-01-15 04:00:00 -- -- -- -- -- -- -- -- --
2020-01-15 03:00:00 -- -- -- -- -- -- -- -- --
2020-01-15 02:00:00 -- -- -- -- -- -- -- -- --
2020-01-15 01:00:00 -- -- -- -- -- -- -- -- --
2020-01-15 00:00:00 -- -- -- -- -- -- -- -- --
2020-01-14 23:00:00 -- -- -- -- -- -- -- -- --
2020-01-14 22:00:00 -- -- -- -- -- -- -- -- --
2020-01-14 21:00:00 -- -- -- -- -- -- -- -- --
2020-01-14 20:00:00 -- -- -- -- -- -- -- -- --
2020-01-14 19:00:00 -- -- -- -- -- -- -- -- --
2020-01-14 18:00:00 -- -- -- -- -- -- -- -- --
2020-01-14 17:00:00 -- -- -- -- -- -- -- -- --
2020-01-14 16:00:00 -- -- -- -- -- -- -- -- --
2020-01-14 15:00:00 -- -- -- -- -- -- -- -- --
2020-01-14 14:00:00 -- -- -- -- -- -- -- -- --
2020-01-14 13:00:00 -- -- -- -- -- -- -- -- --
2020-01-14 12:00:00 -- -- -- -- -- -- -- -- --
2020-01-14 11:00:00 -- -- -- -- -- -- -- -- --
2020-01-14 10:00:00 -- -- -- -- -- -- -- -- --
2020-01-14 09:00:00 -- -- -- -- -- -- -- -- --
2020-01-14 08:00:00 -- -- -- -- -- -- -- -- --
2020-01-14 07:00:00 -- -- -- -- -- -- -- -- --
2020-01-14 06:00:00 -- -- -- -- -- -- -- -- --
2020-01-14 05:00:00 -- -- -- -- -- -- -- -- --
2020-01-14 04:00:00 -- -- -- -- -- -- -- -- --
2020-01-14 03:00:00 -- -- -- -- -- -- -- -- --
2020-01-14 02:00:00 -- -- -- -- -- -- -- -- --
2020-01-14 01:00:00 -- -- -- -- -- -- -- -- --
2020-01-14 00:00:00 -- -- -- -- -- -- -- -- --
2020-01-13 23:00:00 -- -- -- -- -- -- -- -- --
2020-01-13 22:00:00 -- -- -- -- -- -- -- -- --
2020-01-13 21:00:00 -- -- -- -- -- -- -- -- --
2020-01-13 20:00:00 -- -- -- -- -- -- -- -- --
2020-01-13 19:00:00 -- -- -- -- -- -- -- -- --
2020-01-13 18:00:00 -- -- -- -- -- -- -- -- --
2020-01-13 17:00:00 -- -- -- -- -- -- -- -- --
2020-01-13 16:00:00 -- -- -- -- -- -- -- -- --
2020-01-13 15:00:00 -- -- -- -- -- -- -- -- --
2020-01-13 14:00:00 -- -- -- -- -- -- -- -- --
2020-01-13 13:00:00 -- -- -- -- -- -- -- -- --
2020-01-13 12:00:00 -- -- -- -- -- -- -- -- --
2020-01-13 11:00:00 -- -- -- -- -- -- -- -- --
2020-01-13 10:00:00 -- -- -- -- -- -- -- -- --
2020-01-13 09:00:00 -- -- -- -- -- -- -- -- --
2020-01-13 08:00:00 -- -- -- -- -- -- -- -- --
2020-01-13 07:00:00 -- -- -- -- -- -- -- -- --
2020-01-13 06:00:00 -- -- -- -- -- -- -- -- --
2020-01-13 05:00:00 -- -- -- -- -- -- -- -- --
2020-01-13 04:00:00 -- -- -- -- -- -- -- -- --
2020-01-13 03:00:00 -- -- -- -- -- -- -- -- --
2020-01-13 02:00:00 -- -- -- -- -- -- -- -- --
2020-01-13 01:00:00 -- -- -- -- -- -- -- -- --
2020-01-13 00:00:00 -- -- -- -- -- -- -- -- --
2020-01-12 23:00:00 -- -- -- -- -- -- -- -- --
2020-01-12 22:00:00 -- -- -- -- -- -- -- -- --
2020-01-12 21:00:00 -- -- -- -- -- -- -- -- --
2020-01-12 20:00:00 -- -- -- -- -- -- -- -- --
2020-01-12 19:00:00 -- -- -- -- -- -- -- -- --
2020-01-12 18:00:00 -- -- -- -- -- -- -- -- --
2020-01-12 17:00:00 -- -- -- -- -- -- -- -- --
2020-01-12 16:00:00 -- -- -- -- -- -- -- -- --
2020-01-12 15:00:00 -- -- -- -- -- -- -- -- --
2020-01-12 14:00:00 -- -- -- -- -- -- -- -- --
2020-01-12 13:00:00 -- -- -- -- -- -- -- -- --
2020-01-12 12:00:00 -- -- -- -- -- -- -- -- --
2020-01-12 11:00:00 -- -- -- -- -- -- -- -- --
2020-01-12 10:00:00 -- -- -- -- -- -- -- -- --
2020-01-12 09:00:00 -- -- -- -- -- -- -- -- --
2020-01-12 08:00:00 -- -- -- -- -- -- -- -- --
2020-01-12 07:00:00 -- -- -- -- -- -- -- -- --
2020-01-12 06:00:00 -- -- -- -- -- -- -- -- --
2020-01-12 05:00:00 -- -- -- -- -- -- -- -- --
2020-01-12 04:00:00 -- -- -- -- -- -- -- -- --
2020-01-12 03:00:00 -- -- -- -- -- -- -- -- --
2020-01-12 02:00:00 -- -- -- -- -- -- -- -- --
2020-01-12 01:00:00 -- -- -- -- -- -- -- -- --
2020-01-12 00:00:00 -- -- -- -- -- -- -- -- --
2020-01-11 23:00:00 -- -- -- -- -- -- -- -- --
2020-01-11 22:00:00 -- -- -- -- -- -- -- -- --
2020-01-11 21:00:00 -- -- -- -- -- -- -- -- --
2020-01-11 20:00:00 -- -- -- -- -- -- -- -- --
2020-01-11 19:00:00 -- -- -- -- -- -- -- -- --
2020-01-11 18:00:00 -- -- -- -- -- -- -- -- --
2020-01-11 17:00:00 -- -- -- -- -- -- -- -- --
2020-01-11 16:00:00 -- -- -- -- -- -- -- -- --
2020-01-11 15:00:00 -- -- -- -- -- -- -- -- --
2020-01-11 14:00:00 -- -- -- -- -- -- -- -- --
2020-01-11 13:00:00 -- -- -- -- -- -- -- -- --
2020-01-11 12:00:00 -- -- -- -- -- -- -- -- --
2020-01-11 11:00:00 -- -- -- -- -- -- -- -- --
2020-01-11 10:00:00 -- -- -- -- -- -- -- -- --
2020-01-11 09:00:00 -- -- -- -- -- -- -- -- --
2020-01-11 08:00:00 -- -- -- -- -- -- -- -- --
2020-01-11 07:00:00 -- -- -- -- -- -- -- -- --
2020-01-11 06:00:00 -- -- -- -- -- -- -- -- --
2020-01-11 05:00:00 -- -- -- -- -- -- -- -- --
2020-01-11 04:00:00 -- -- -- -- -- -- -- -- --
2020-01-11 03:00:00 -- -- -- -- -- -- -- -- --
2020-01-11 02:00:00 -- -- -- -- -- -- -- -- --
2020-01-11 01:00:00 -- -- -- -- -- -- -- -- --
2020-01-11 00:00:00 -- -- -- -- -- -- -- -- --
2020-01-10 23:00:00 -- -- -- -- -- -- -- -- --
2020-01-10 22:00:00 -- -- -- -- -- -- -- -- --
2020-01-10 21:00:00 -- -- -- -- -- -- -- -- --
2020-01-10 20:00:00 -- -- -- -- -- -- -- -- --
2020-01-10 19:00:00 -- -- -- -- -- -- -- -- --
2020-01-10 18:00:00 -- -- -- -- -- -- -- -- --
2020-01-10 17:00:00 -- -- -- -- -- -- -- -- --
2020-01-10 16:00:00 -- -- -- -- -- -- -- -- --
2020-01-10 15:00:00 -- -- -- -- -- -- -- -- --
2020-01-10 14:00:00 -- -- -- -- -- -- -- -- --
2020-01-10 13:00:00 -- -- -- -- -- -- -- -- --
2020-01-10 12:00:00 -- -- -- -- -- -- -- -- --
2020-01-10 11:00:00 -- -- -- -- -- -- -- -- --
2020-01-10 10:00:00 -- -- -- -- -- -- -- -- --
2020-01-10 09:00:00 -- -- -- -- -- -- -- -- --
2020-01-10 08:00:00 -- -- -- -- -- -- -- -- --
2020-01-10 07:00:00 -- -- -- -- -- -- -- -- --
2020-01-10 06:00:00 -- -- -- -- -- -- -- -- --
2020-01-10 05:00:00 -- -- -- -- -- -- -- -- --
2020-01-10 04:00:00 -- -- -- -- -- -- -- -- --
2020-01-10 03:00:00 -- -- -- -- -- -- -- -- --
2020-01-10 02:00:00 -- -- -- -- -- -- -- -- --
2020-01-10 01:00:00 -- -- -- -- -- -- -- -- --
2020-01-10 00:00:00 -- -- -- -- -- -- -- -- --
2020-01-09 23:00:00 -- -- -- -- -- -- -- -- --
2020-01-09 22:00:00 -- -- -- -- -- -- -- -- --
2020-01-09 21:00:00 -- -- -- -- -- -- -- -- --
2020-01-09 20:00:00 -- -- -- -- -- -- -- -- --
2020-01-09 19:00:00 -- -- -- -- -- -- -- -- --
2020-01-09 18:00:00 -- -- -- -- -- -- -- -- --
2020-01-09 17:00:00 -- -- -- -- -- -- -- -- --
2020-01-09 16:00:00 -- -- -- -- -- -- -- -- --
2020-01-09 15:00:00 -- -- -- -- -- -- -- -- --
2020-01-09 14:00:00 -- -- -- -- -- -- -- -- --
2020-01-09 13:00:00 -- -- -- -- -- -- -- -- --
2020-01-09 12:00:00 -- -- -- -- -- -- -- -- --
2020-01-09 11:00:00 -- -- -- -- -- -- -- -- --
2020-01-09 10:00:00 -- -- -- -- -- -- -- -- --
2020-01-09 09:00:00 -- -- -- -- -- -- -- -- --
2020-01-09 08:00:00 -- -- -- -- -- -- -- -- --
2020-01-09 07:00:00 -- -- -- -- -- -- -- -- --
2020-01-09 06:00:00 -- -- -- -- -- -- -- -- --
2020-01-09 05:00:00 -- -- -- -- -- -- -- -- --
2020-01-09 04:00:00 -- -- -- -- -- -- -- -- --
2020-01-09 03:00:00 -- -- -- -- -- -- -- -- --
2020-01-09 02:00:00 -- -- -- -- -- -- -- -- --
2020-01-09 01:00:00 -- -- -- -- -- -- -- -- --
2020-01-09 00:00:00 -- -- -- -- -- -- -- -- --
2020-01-08 23:00:00 -- -- -- -- -- -- -- -- --
2020-01-08 22:00:00 -- -- -- -- -- -- -- -- --
2020-01-08 21:00:00 -- -- -- -- -- -- -- -- --
2020-01-08 20:00:00 -- -- -- -- -- -- -- -- --
2020-01-08 19:00:00 -- -- -- -- -- -- -- -- --
2020-01-08 18:00:00 -- -- -- -- -- -- -- -- --
2020-01-08 17:00:00 -- -- -- -- -- -- -- -- --
2020-01-08 16:00:00 -- -- -- -- -- -- -- -- --
2020-01-08 15:00:00 -- -- -- -- -- -- -- -- --
2020-01-08 14:00:00 -- -- -- -- -- -- -- -- --
2020-01-08 13:00:00 -- -- -- -- -- -- -- -- --
2020-01-08 12:00:00 -- -- -- -- -- -- -- -- --
2020-01-08 11:00:00 -- -- -- -- -- -- -- -- --
2020-01-08 10:00:00 -- -- -- -- -- -- -- -- --
2020-01-08 09:00:00 -- -- -- -- -- -- -- -- --
2020-01-08 08:00:00 -- -- -- -- -- -- -- -- --
2020-01-08 07:00:00 -- -- -- -- -- -- -- -- --
2020-01-08 06:00:00 -- -- -- -- -- -- -- -- --
2020-01-08 05:00:00 -- -- -- -- -- -- -- -- --
2020-01-08 04:00:00 -- -- -- -- -- -- -- -- --
2020-01-08 03:00:00 -- -- -- -- -- -- -- -- --
2020-01-08 02:00:00 -- -- -- -- -- -- -- -- --
2020-01-08 01:00:00 -- -- -- -- -- -- -- -- --
2020-01-08 00:00:00 -- -- -- -- -- -- -- -- --
2020-01-07 23:00:00 -- -- -- -- -- -- -- -- --
2020-01-07 22:00:00 -- -- -- -- -- -- -- -- --
2020-01-07 21:00:00 -- -- -- -- -- -- -- -- --
2020-01-07 20:00:00 -- -- -- -- -- -- -- -- --
2020-01-07 19:00:00 -- -- -- -- -- -- -- -- --
2020-01-07 18:00:00 -- -- -- -- -- -- -- -- --
2020-01-07 17:00:00 -- -- -- -- -- -- -- -- --
2020-01-07 16:00:00 -- -- -- -- -- -- -- -- --
2020-01-07 15:00:00 -- -- -- -- -- -- -- -- --
2020-01-07 14:00:00 -- -- -- -- -- -- -- -- --
2020-01-07 13:00:00 -- -- -- -- -- -- -- -- --
2020-01-07 12:00:00 -- -- -- -- -- -- -- -- --
2020-01-07 11:00:00 -- -- -- -- -- -- -- -- --
2020-01-07 10:00:00 -- -- -- -- -- -- -- -- --
2020-01-07 09:00:00 -- -- -- -- -- -- -- -- --
2020-01-07 08:00:00 -- -- -- -- -- -- -- -- --
2020-01-07 07:00:00 -- -- -- -- -- -- -- -- --
2020-01-07 06:00:00 -- -- -- -- -- -- -- -- --
2020-01-07 05:00:00 -- -- -- -- -- -- -- -- --
2020-01-07 04:00:00 -- -- -- -- -- -- -- -- --
2020-01-07 03:00:00 -- -- -- -- -- -- -- -- --
2020-01-07 02:00:00 -- -- -- -- -- -- -- -- --
2020-01-07 01:00:00 -- -- -- -- -- -- -- -- --
2020-01-07 00:00:00 -- -- -- -- -- -- -- -- --
2020-01-06 23:00:00 -- -- -- -- -- -- -- -- --
2020-01-06 22:00:00 -- -- -- -- -- -- -- -- --
2020-01-06 21:00:00 -- -- -- -- -- -- -- -- --
2020-01-06 20:00:00 -- -- -- -- -- -- -- -- --
2020-01-06 19:00:00 -- -- -- -- -- -- -- -- --
2020-01-06 18:00:00 -- -- -- -- -- -- -- -- --
2020-01-06 17:00:00 -- -- -- -- -- -- -- -- --
2020-01-06 16:00:00 -- -- -- -- -- -- -- -- --
2020-01-06 15:00:00 -- -- -- -- -- -- -- -- --
2020-01-06 14:00:00 -- -- -- -- -- -- -- -- --
2020-01-06 13:00:00 -- -- -- -- -- -- -- -- --
2020-01-06 12:00:00 -- -- -- -- -- -- -- -- --
2020-01-06 11:00:00 -- -- -- -- -- -- -- -- --
2020-01-06 10:00:00 -- -- -- -- -- -- -- -- --